Time;durP1;ratioP1;P1;durP2;ratioP2;P2;SDS_P1;SDS_P2;PMS_P1;PMS_P2;Temp;Humidity;BMP_temperature;BMP_pressure;BME280_temperature;BME280_humidity;BME280_pressure;Samples;Min_cycle;Max_cycle;Signal;HPM_P1;HPM_P2
2023/04/19 00:01:59;;;;;;;10.80;2.50;;;;;;;3.47;61.43;100627.16;1691414;82;21072;-65
2023/04/19 00:04:25;;;;;;;5.58;2.47;;;;;;;3.46;61.66;100621.58;1707617;83;21034;-65
2023/04/19 00:06:52;;;;;;;7.00;2.70;;;;;;;3.47;61.44;100621.98;1734437;81;20971;-65
2023/04/19 00:09:19;;;;;;;4.95;2.25;;;;;;;3.49;61.59;100615.11;1727331;82;21033;-66
2023/04/19 00:11:45;;;;;;;10.80;2.80;;;;;;;3.50;61.51;100611.65;1735396;81;20959;-65
2023/04/19 00:14:11;;;;;;;6.90;2.37;;;;;;;3.52;61.66;100613.36;1706075;83;21093;-65
2023/04/19 00:16:37;;;;;;;5.55;2.35;;;;;;;3.56;61.72;100607.77;1709247;82;21007;-65
2023/04/19 00:19:04;;;;;;;5.65;2.15;;;;;;;3.59;61.59;100611.63;1732834;82;21248;-65
2023/04/19 00:21:32;;;;;;;8.33;2.95;;;;;;;3.59;61.67;100607.76;1734928;82;21503;-65
2023/04/19 00:23:58;;;;;;;8.85;2.90;;;;;;;3.61;61.83;100596.11;1732723;81;20971;-65
2023/04/19 00:26:24;;;;;;;6.80;2.45;;;;;;;3.64;61.93;100593.11;1715184;82;21062;-65
2023/04/19 00:28:51;;;;;;;5.50;2.30;;;;;;;3.70;62.20;100592.22;1710974;82;21483;-65
2023/04/19 00:31:17;;;;;;;7.08;2.30;;;;;;;3.75;62.00;100593.91;1725672;81;21180;-66
2023/04/19 00:33:43;;;;;;;7.08;3.10;;;;;;;3.77;62.17;100590.86;1741427;82;21022;-65
2023/04/19 00:36:09;;;;;;;5.20;2.10;;;;;;;3.79;62.32;100583.97;1733388;81;20939;-65
2023/04/19 00:38:36;;;;;;;8.38;2.62;;;;;;;3.83;62.07;100582.66;1740815;81;21001;-65
2023/04/19 00:41:02;;;;;;;6.25;2.55;;;;;;;3.81;62.07;100582.24;1725104;82;20975;-65
2023/04/19 00:43:28;;;;;;;6.67;2.45;;;;;;;3.83;62.08;100577.48;1733449;82;21046;-66
2023/04/19 00:45:54;;;;;;;4.60;2.52;;;;;;;3.85;62.27;100579.64;1730105;82;21030;-65
2023/04/19 00:48:20;;;;;;;6.60;2.77;;;;;;;3.84;62.22;100572.73;1729058;82;20999;-65
2023/04/19 00:50:47;;;;;;;6.25;2.95;;;;;;;3.84;62.17;100569.74;1699361;83;21667;-65
2023/04/19 00:53:13;;;;;;;6.33;2.73;;;;;;;3.81;62.35;100556.41;1728948;82;21015;-65
2023/04/19 00:55:40;;;;;;;5.37;2.47;;;;;;;3.81;62.35;100556.41;1712099;82;21564;-65
2023/04/19 01:00:43;;;;;;;7.22;2.70;;;;;;;3.79;62.94;100562.01;1696372;82;22565;-69
2023/04/19 01:03:10;;;;;;;6.65;2.47;;;;;;;3.79;62.90;100560.72;1711209;82;21500;-68
2023/04/19 01:05:36;;;;;;;11.55;2.50;;;;;;;3.78;62.59;100559.02;1684125;84;21092;-69
2023/04/19 01:08:03;;;;;;;7.92;3.00;;;;;;;3.76;62.68;100555.58;1685638;84;21083;-68
2023/04/19 01:10:29;;;;;;;6.60;2.60;;;;;;;3.73;62.86;100553.02;1679298;84;21504;-68
2023/04/19 01:12:55;;;;;;;7.78;2.72;;;;;;;3.69;62.65;100552.59;1678515;84;20990;-68
2023/04/19 01:15:22;;;;;;;6.65;2.80;;;;;;;3.66;62.86;100550.47;1688045;84;21041;-69
2023/04/19 01:17:48;;;;;;;9.05;2.70;;;;;;;3.66;63.05;100559.06;1712648;82;21069;-68
2023/04/19 01:20:14;;;;;;;7.47;3.60;;;;;;;3.63;62.77;100553.92;1715720;82;21484;-68
2023/04/19 01:22:41;;;;;;;6.58;2.95;;;;;;;3.60;63.33;100550.06;1714817;82;21115;-72
2023/04/19 01:25:07;;;;;;;11.43;3.00;;;;;;;3.58;63.68;100547.92;1717616;82;21317;-68
2023/04/19 01:27:34;;;;;;;9.23;2.60;;;;;;;3.59;63.33;100544.48;1681113;83;21100;-69
2023/04/19 01:30:00;;;;;;;9.70;3.05;;;;;;;3.59;63.33;100544.48;1714191;82;21453;-72
2023/04/19 01:32:26;;;;;;;6.70;2.90;;;;;;;3.61;63.34;100538.86;1716525;82;21447;-69
2023/04/19 01:34:53;;;;;;;6.17;2.65;;;;;;;3.64;63.47;100535.00;1711001;82;20980;-70
2023/04/19 01:37:19;;;;;;;5.80;2.42;;;;;;;3.63;63.58;100533.26;1714605;82;21634;-69
2023/04/19 01:39:45;;;;;;;9.53;3.15;;;;;;;3.63;63.39;100529.39;1717286;82;21006;-69
2023/04/19 01:42:11;;;;;;;8.15;2.85;;;;;;;3.61;63.61;100528.53;1714428;82;20953;-69
2023/04/19 01:44:38;;;;;;;5.75;2.65;;;;;;;3.64;63.76;100527.25;1714998;82;20993;-69
2023/04/19 01:47:04;;;;;;;8.70;2.85;;;;;;;3.65;63.73;100526.38;1712641;82;21058;-68
2023/04/19 01:49:30;;;;;;;5.10;2.08;;;;;;;3.65;63.82;100525.08;1714735;82;21062;-70
2023/04/19 01:51:57;;;;;;;8.55;2.55;;;;;;;3.64;63.87;100520.80;1713462;82;21058;-70
2023/04/19 01:54:23;;;;;;;6.45;2.62;;;;;;;3.65;63.93;100513.45;1712459;82;21011;-68
2023/04/19 01:56:50;;;;;;;9.55;2.80;;;;;;;3.66;64.16;100519.03;1714074;82;21045;-68
2023/04/19 01:59:36;;;;;;;5.07;2.50;;;;;;;3.65;64.36;100512.61;1686235;83;21012;-68
2023/04/19 02:02:08;;;;;;;9.63;2.27;;;;;;;3.65;64.36;100512.61;1701645;83;21488;-70
2023/04/19 02:04:34;;;;;;;11.33;2.90;;;;;;;3.63;64.39;100510.02;1700935;83;21061;-70
2023/04/19 02:07:00;;;;;;;9.65;2.62;;;;;;;3.61;64.28;100501.41;1727320;81;21020;-71
2023/04/19 02:09:27;;;;;;;8.80;2.92;;;;;;;3.59;64.25;100501.44;1728428;82;21540;-70
2023/04/19 02:11:53;;;;;;;6.05;2.52;;;;;;;3.62;64.32;100503.15;1737280;81;20950;-71
2023/04/19 02:14:19;;;;;;;6.90;3.12;;;;;;;3.61;64.41;100501.41;1739704;80;21131;-69
2023/04/19 02:16:45;;;;;;;7.05;3.30;;;;;;;3.59;64.51;100507.05;1741045;81;21936;-67
2023/04/19 02:19:31;;;;;;;6.60;3.02;;;;;;;3.58;64.26;100500.14;1702991;82;20973;-68
2023/04/19 02:21:58;;;;;;;11.83;2.87;;;;;;;3.55;64.56;100498.88;1702171;83;20991;-68
2023/04/19 02:24:24;;;;;;;9.73;3.77;;;;;;;3.56;64.55;100500.61;1703250;82;21520;-68
2023/04/19 02:26:51;;;;;;;6.22;2.45;;;;;;;3.55;64.58;100495.00;1704783;82;21010;-68
2023/04/19 02:29:17;;;;;;;7.03;3.33;;;;;;;3.52;65.09;100485.98;1702014;82;21127;-68
2023/04/19 02:31:45;;;;;;;6.87;2.65;;;;;;;3.50;65.05;100491.59;1673929;84;20982;-68
2023/04/19 02:34:11;;;;;;;7.25;2.77;;;;;;;3.49;65.13;100488.59;1674245;84;21010;-68
2023/04/19 02:36:38;;;;;;;6.75;2.83;;;;;;;3.48;65.11;100481.72;1645607;85;21062;-69
2023/04/19 02:39:04;;;;;;;6.93;2.77;;;;;;;3.48;65.10;100485.59;1644743;86;21037;-69
2023/04/19 02:41:31;;;;;;;7.58;2.72;;;;;;;3.45;65.02;100481.75;1648674;86;21010;-68
2023/04/19 02:43:57;;;;;;;6.97;2.90;;;;;;;3.44;65.32;100480.02;1638064;86;21136;-71
2023/04/19 02:46:23;;;;;;;6.85;2.83;;;;;;;3.41;65.42;100481.32;1689863;83;21017;-68
2023/04/19 02:48:50;;;;;;;9.25;3.17;;;;;;;3.42;65.19;100479.16;1692511;83;21052;-70
2023/04/19 02:51:17;;;;;;;12.80;3.62;;;;;;;3.40;65.20;100466.71;1689874;83;21078;-68
2023/04/19 02:53:43;;;;;;;13.53;3.17;;;;;;;3.41;65.31;100472.28;1685511;83;20986;-72
2023/04/19 02:56:09;;;;;;;5.92;2.95;;;;;;;3.41;65.48;100471.00;1683955;83;20989;-68
2023/04/19 02:58:36;;;;;;;4.53;2.35;;;;;;;3.41;65.61;100472.28;1667144;84;21088;-69
2023/04/19 03:01:02;;;;;;;9.95;2.87;;;;;;;3.39;65.51;100468.84;1672940;84;21012;-69
2023/04/19 03:03:28;;;;;;;7.58;2.92;;;;;;;3.38;65.75;100469.73;1666552;84;20998;-68
2023/04/19 03:05:55;;;;;;;7.95;2.85;;;;;;;3.39;65.61;100467.56;1684868;83;21014;-69
2023/04/19 03:08:22;;;;;;;8.30;3.12;;;;;;;3.38;65.93;100469.29;1691562;83;20974;-69
2023/04/19 03:10:48;;;;;;;7.83;2.83;;;;;;;3.34;66.10;100459.42;1698360;83;21565;-68
2023/04/19 03:13:14;;;;;;;9.35;3.30;;;;;;;3.33;65.84;100465.46;1685519;83;21025;-69
2023/04/19 03:15:41;;;;;;;7.03;3.25;;;;;;;3.31;65.93;100463.31;1688218;84;21024;-69
2023/04/19 03:18:07;;;;;;;8.53;2.67;;;;;;;3.33;66.12;100462.88;1689656;83;21050;-68
2023/04/19 03:20:33;;;;;;;10.72;3.37;;;;;;;3.34;66.52;100463.30;1668820;84;21077;-69
2023/04/19 03:23:00;;;;;;;9.63;3.15;;;;;;;3.34;66.90;100465.88;1674012;84;21614;-67
2023/04/19 03:25:26;;;;;;;8.10;3.45;;;;;;;3.36;66.29;100465.44;1673200;84;21032;-68
2023/04/19 03:27:52;;;;;;;12.65;3.27;;;;;;;3.39;66.99;100461.10;1673219;84;21543;-68
2023/04/19 03:30:18;;;;;;;6.22;3.75;;;;;;;3.40;66.82;100460.26;1646447;85;21005;-69
2023/04/19 03:32:46;;;;;;;9.05;2.77;;;;;;;3.38;66.62;100464.56;1652280;85;21002;-71
2023/04/19 03:35:12;;;;;;;5.55;2.67;;;;;;;3.40;66.83;100452.52;1696191;83;21006;-69
2023/04/19 03:37:39;;;;;;;10.43;3.10;;;;;;;3.43;66.69;100460.23;1691881;83;21121;-72
2023/04/19 03:40:07;;;;;;;9.58;3.55;;;;;;;3.43;66.62;100455.92;1673091;84;21037;-71
2023/04/19 03:42:33;;;;;;;8.83;2.65;;;;;;;3.46;66.63;100452.47;1670864;84;21108;-70
2023/04/19 03:44:59;;;;;;;7.22;2.75;;;;;;;3.49;66.64;100455.03;1640019;85;21040;-71
2023/04/19 03:47:26;;;;;;;8.15;2.92;;;;;;;3.50;66.98;100448.98;1644686;85;21394;-69
2023/04/19 03:49:52;;;;;;;10.05;3.50;;;;;;;3.55;66.81;100451.11;1641292;85;20990;-70
2023/04/19 03:52:18;;;;;;;8.93;3.20;;;;;;;3.56;66.60;100448.97;1671818;84;21101;-69
2023/04/19 03:54:44;;;;;;;7.25;2.90;;;;;;;3.55;66.98;100452.39;1673964;84;21013;-69
2023/04/19 03:57:16;;;;;;;4.85;2.58;;;;;;;3.56;67.22;100451.55;1669404;84;21045;-70
2023/04/19 03:59:39;;;;;;;5.90;3.00;;;;;;;3.58;67.24;100449.79;1673198;84;21009;-69
2023/04/19 04:02:06;;;;;;;10.20;3.30;;;;;;;3.60;67.08;100445.48;1649525;85;21080;-70
2023/04/19 04:04:32;;;;;;;10.90;4.05;;;;;;;3.61;66.87;100443.31;1650948;85;21097;-70
2023/04/19 04:06:59;;;;;;;9.50;3.45;;;;;;;3.63;67.25;100453.64;1647248;85;21398;-69
2023/04/19 04:09:25;;;;;;;6.30;3.35;;;;;;;3.66;67.46;100450.59;1659543;85;20986;-69
2023/04/19 04:11:51;;;;;;;8.85;2.87;;;;;;;3.70;67.23;100454.89;1670625;84;21019;-68
2023/04/19 04:14:17;;;;;;;5.15;2.60;;;;;;;3.78;67.29;100453.52;1679725;83;21017;-70
2023/04/19 04:16:44;;;;;;;4.00;2.40;;;;;;;3.87;67.23;100447.45;1669813;84;21411;-70
2023/04/19 04:19:10;;;;;;;6.28;2.92;;;;;;;3.95;67.45;100449.50;1653828;84;21074;-70
2023/04/19 04:21:36;;;;;;;8.20;3.00;;;;;;;4.03;67.53;100445.12;1630016;86;21077;-72
2023/04/19 04:24:03;;;;;;;7.40;2.83;;;;;;;4.13;67.86;100449.34;1636973;86;20956;-68
2023/04/19 04:26:29;;;;;;;6.58;3.20;;;;;;;4.25;67.43;100446.63;1644897;86;21052;-68
2023/04/19 04:28:56;;;;;;;8.28;2.62;;;;;;;4.36;67.48;100450.85;1641027;86;21006;-69
2023/04/19 04:31:23;;;;;;;9.67;3.20;;;;;;;4.46;67.75;100452.48;1647135;85;21573;-68
2023/04/19 04:33:49;;;;;;;4.77;2.40;;;;;;;4.56;67.55;100438.55;1641991;86;21775;-71
2023/04/19 04:36:15;;;;;;;5.33;2.67;;;;;;;4.67;67.64;100436.70;1646952;86;21005;-69
2023/04/19 04:38:42;;;;;;;8.58;3.10;;;;;;;4.82;67.60;100452.95;1644232;86;20990;-68
2023/04/19 04:41:08;;;;;;;5.40;2.83;;;;;;;4.90;67.40;100446.80;1636802;86;21030;-69
2023/04/19 04:43:34;;;;;;;4.50;2.77;;;;;;;4.97;67.44;100444.98;1654961;85;20986;-69
2023/04/19 04:46:01;;;;;;;6.80;3.12;;;;;;;5.06;67.06;100451.77;1661686;85;21091;-68
2023/04/19 04:48:27;;;;;;;8.20;3.15;;;;;;;5.00;67.34;100447.52;1629660;86;21087;-68
2023/04/19 04:50:53;;;;;;;7.60;2.87;;;;;;;5.06;67.30;100447.44;1658477;86;21050;-68
2023/04/19 04:53:19;;;;;;;8.53;3.00;;;;;;;5.13;67.41;100449.09;1659707;85;21014;-69
2023/04/19 04:55:46;;;;;;;10.25;3.30;;;;;;;5.24;67.13;100448.09;1629853;86;21589;-70
2023/04/19 04:58:12;;;;;;;5.78;2.90;;;;;;;5.34;67.16;100444.48;1653202;85;21018;-69
2023/04/19 05:00:38;;;;;;;6.67;2.72;;;;;;;5.41;67.01;100455.18;1654657;86;21069;-72
2023/04/19 05:03:05;;;;;;;7.10;3.20;;;;;;;5.50;67.03;100448.56;1661990;85;21054;-71
2023/04/19 05:05:31;;;;;;;7.83;3.10;;;;;;;5.55;67.05;100446.77;1655410;86;21081;-69
2023/04/19 05:07:58;;;;;;;10.45;2.85;;;;;;;5.71;67.19;100447.81;1656700;85;21085;-69
2023/04/19 05:10:24;;;;;;;6.30;2.90;;;;;;;5.85;66.99;100448.44;1660128;85;21370;-69
2023/04/19 05:12:50;;;;;;;4.37;2.77;;;;;;;5.85;66.34;100452.33;1655129;85;20975;-69
2023/04/19 05:15:17;;;;;;;9.28;3.02;;;;;;;5.77;66.46;100446.41;1659825;86;21081;-69
2023/04/19 05:17:43;;;;;;;7.20;3.15;;;;;;;5.83;66.71;100448.92;1659196;85;21477;-69
2023/04/19 05:20:10;;;;;;;8.70;2.77;;;;;;;5.81;66.44;100448.09;1659171;85;21068;-68
2023/04/19 05:22:37;;;;;;;6.10;2.77;;;;;;;5.79;66.60;100447.25;1627462;87;20926;-68
2023/04/19 05:25:05;;;;;;;8.38;4.15;;;;;;;5.85;66.94;100441.95;1633493;86;21147;-67
2023/04/19 05:27:32;;;;;;;6.17;3.33;;;;;;;6.02;66.88;100447.77;1635063;86;21041;-68
2023/04/19 05:29:58;;;;;;;7.25;3.62;;;;;;;6.17;66.81;100443.20;1635445;86;20987;-68
2023/04/19 05:32:25;;;;;;;5.25;2.80;;;;;;;6.26;66.61;100443.03;1624409;86;21042;-68
2023/04/19 05:34:51;;;;;;;11.35;2.72;;;;;;;6.19;66.16;100444.89;1637174;86;20939;-69
2023/04/19 05:37:17;;;;;;;9.35;2.75;;;;;;;6.20;66.14;100435.37;1627147;86;21069;-74
2023/04/19 05:39:43;;;;;;;6.62;2.80;;;;;;;6.14;66.11;100435.03;1635534;85;20991;-69
2023/04/19 05:42:10;;;;;;;6.67;2.80;;;;;;;6.17;66.20;100435.42;1628504;86;21059;-69
2023/04/19 05:44:36;;;;;;;4.90;2.70;;;;;;;6.12;66.00;100443.72;1627897;86;21069;-72
2023/04/19 05:47:02;;;;;;;4.50;2.45;;;;;;;6.20;66.14;100438.81;1631142;86;20970;-68
2023/04/19 05:49:29;;;;;;;6.60;2.95;;;;;;;6.25;66.04;100441.33;1631686;86;22307;-67
2023/04/19 05:51:55;;;;;;;4.47;2.62;;;;;;;6.21;65.74;100437.06;1659908;85;20986;-68
2023/04/19 05:54:22;;;;;;;10.75;4.05;;;;;;;6.27;66.05;100435.66;1633132;86;21018;-67
2023/04/19 05:56:48;;;;;;;4.95;2.98;;;;;;;6.42;66.30;100430.20;1632522;86;21084;-66
2023/04/19 05:59:15;;;;;;;7.70;3.40;;;;;;;6.69;65.90;100437.02;1626304;86;21642;-67
2023/04/19 06:01:41;;;;;;;8.13;3.40;;;;;;;6.88;65.58;100428.42;1628628;86;21048;-68
2023/04/19 06:04:07;;;;;;;4.15;2.80;;;;;;;6.90;65.22;100418.42;1626616;87;21571;-67
2023/04/19 06:06:34;;;;;;;8.25;3.33;;;;;;;7.03;65.42;100420.74;1624648;86;21112;-68
2023/04/19 06:09:00;;;;;;;6.37;2.57;;;;;;;7.20;65.34;100418.66;1626979;86;21042;-69
2023/04/19 06:11:27;;;;;;;4.83;2.60;;;;;;;7.27;64.56;100428.00;1621964;86;21509;-67
2023/04/19 06:13:53;;;;;;;6.17;2.90;;;;;;;7.29;64.21;100421.04;1602682;88;21573;-69
2023/04/19 06:16:19;;;;;;;6.78;2.67;;;;;;;7.19;64.27;100411.73;1630006;86;21138;-69
2023/04/19 06:18:46;;;;;;;6.87;2.77;;;;;;;7.33;64.94;100414.88;1636850;85;22445;-68
2023/04/19 06:21:12;;;;;;;7.60;2.75;;;;;;;7.66;64.62;100409.78;1686174;83;21469;-68
2023/04/19 06:23:38;;;;;;;4.95;2.52;;;;;;;7.96;64.28;100402.12;1673170;84;21057;-68
2023/04/19 06:26:05;;;;;;;9.63;3.27;;;;;;;8.16;62.92;100402.45;1669486;84;21061;-73
2023/04/19 06:28:31;;;;;;;5.15;2.50;;;;;;;8.23;64.08;100404.00;1637003;86;21631;-77
2023/04/19 06:30:58;;;;;;;3.58;2.22;;;;;;;8.58;63.52;100396.99;1643384;85;21049;-71
2023/04/19 06:33:24;;;;;;;6.78;2.62;;;;;;;8.89;63.19;100390.91;1684152;83;21019;-69
2023/04/19 06:35:51;;;;;;;6.53;2.52;;;;;;;9.00;62.95;100395.34;1686630;83;21535;-67
2023/04/19 06:38:17;;;;;;;3.37;2.20;;;;;;;9.08;62.04;100394.66;1692972;83;21033;-68
2023/04/19 06:40:43;;;;;;;5.00;2.70;;;;;;;8.77;62.15;100388.67;1688799;83;20966;-69
2023/04/19 06:43:10;;;;;;;3.40;2.10;;;;;;;8.86;62.94;100381.42;1689866;83;21093;-68
2023/04/19 06:45:36;;;;;;;7.35;2.65;;;;;;;9.14;62.66;100381.45;1691519;83;20931;-69
2023/04/19 06:48:02;;;;;;;6.15;1.72;;;;;;;9.37;61.58;100386.39;1681906;83;20966;-70
2023/04/19 06:50:29;;;;;;;4.00;2.10;;;;;;;9.19;61.89;100383.46;1684875;83;21492;-67
2023/04/19 06:52:56;;;;;;;5.90;2.70;;;;;;;9.32;61.95;100385.22;1692785;83;20958;-67
2023/04/19 06:55:22;;;;;;;8.18;2.17;;;;;;;9.62;62.43;100393.81;1691621;83;21017;-72
2023/04/19 06:57:48;;;;;;;6.17;2.58;;;;;;;10.20;62.16;100377.11;1687842;83;21056;-74
2023/04/19 07:00:15;;;;;;;3.95;2.12;;;;;;;10.48;60.72;100378.31;1688807;83;21120;-68
2023/04/19 07:02:41;;;;;;;4.80;1.90;;;;;;;10.78;59.26;100354.56;1689248;83;21038;-69
2023/04/19 07:05:08;;;;;;;6.42;1.87;;;;;;;11.08;56.77;100375.59;1691806;84;21014;-76
2023/04/19 07:07:36;;;;;;;5.17;2.50;;;;;;;10.79;59.79;100376.72;1670587;84;21626;-67
2023/04/19 07:10:03;;;;;;;5.62;2.10;;;;;;;11.04;60.06;100370.56;1674866;84;21065;-71
2023/04/19 07:12:29;;;;;;;5.03;2.20;;;;;;;11.49;60.48;100374.88;1669999;84;21072;-68
2023/04/19 07:14:56;;;;;;;4.72;2.30;;;;;;;11.45;60.16;100391.59;1643737;85;21524;-69
2023/04/19 07:17:22;;;;;;;4.92;2.70;;;;;;;11.10;57.00;100383.39;1665499;84;21609;-69
2023/04/19 07:19:49;;;;;;;10.27;2.13;;;;;;;10.62;58.08;100400.00;1671912;84;21144;-68
2023/04/19 07:22:15;;;;;;;5.87;2.47;;;;;;;10.97;58.09;100396.91;1668663;84;21263;-69
2023/04/19 07:24:43;;;;;;;6.60;2.17;;;;;;;10.81;55.16;100387.97;1687411;83;21006;-68
2023/04/19 07:27:09;;;;;;;10.68;2.20;;;;;;;10.91;55.62;100404.98;1690012;83;21011;-70
2023/04/19 07:29:36;;;;;;;4.30;2.42;;;;;;;11.21;56.82;100415.19;1684256;83;21106;-69
2023/04/19 07:32:03;;;;;;;9.05;2.27;;;;;;;11.25;52.69;100394.53;1692257;83;21539;-68
2023/04/19 07:34:30;;;;;;;10.40;2.45;;;;;;;11.65;56.35;100387.27;1693692;83;21478;-68
2023/04/19 07:36:56;;;;;;;9.30;2.98;;;;;;;11.79;52.96;100386.70;1671658;84;21022;-69
2023/04/19 07:39:22;;;;;;;4.60;2.35;;;;;;;11.42;55.31;100380.33;1670191;84;21021;-68
2023/04/19 07:41:49;;;;;;;9.13;2.42;;;;;;;11.62;55.83;100385.21;1680888;84;21035;-68
2023/04/19 07:44:15;;;;;;;4.10;2.55;;;;;;;12.88;54.70;100370.59;1645465;85;21034;-72
2023/04/19 07:46:44;;;;;;;3.22;2.40;;;;;;;13.08;54.01;100371.84;1647431;84;21079;-69
2023/04/19 07:49:10;;;;;;;7.40;2.70;;;;;;;12.59;51.94;100368.84;1643619;84;21069;-71
2023/04/19 07:51:37;;;;;;;9.20;2.60;;;;;;;12.55;54.03;100379.09;1658621;85;21078;-70
2023/04/19 07:54:03;;;;;;;7.05;2.67;;;;;;;12.85;52.13;100399.56;1637982;85;21132;-68
2023/04/19 07:56:29;;;;;;;5.03;2.60;;;;;;;12.56;52.65;100365.06;1697190;83;21251;-68
2023/04/19 07:58:56;;;;;;;3.37;2.37;;;;;;;13.38;54.67;100367.38;1698811;83;21623;-69
2023/04/19 08:01:22;;;;;;;4.05;2.27;;;;;;;14.37;54.30;100348.36;1682670;83;21127;-70
2023/04/19 08:03:48;;;;;;;4.53;2.30;;;;;;;15.71;53.10;100344.46;1687039;83;20985;-68
2023/04/19 08:06:14;;;;;;;4.28;2.35;;;;;;;16.97;53.41;100339.39;1692396;83;21026;-70
2023/04/19 08:08:41;;;;;;;5.85;2.37;;;;;;;17.46;50.57;100346.77;1694424;83;21049;-70
2023/04/19 08:11:07;;;;;;;5.05;2.22;;;;;;;17.99;51.91;100339.72;1687644;83;21096;-72
2023/04/19 08:13:34;;;;;;;3.83;1.80;;;;;;;17.39;47.07;100332.27;1689385;83;21064;-69
2023/04/19 08:16:00;;;;;;;9.83;2.75;;;;;;;17.34;49.91;100321.19;1685317;84;21033;-70
2023/04/19 08:18:26;;;;;;;5.97;2.60;;;;;;;17.56;46.73;100318.82;1690483;83;21508;-68
2023/04/19 08:20:52;;;;;;;3.80;1.90;;;;;;;17.16;48.53;100322.75;1692115;83;21114;-71
2023/04/19 08:23:19;;;;;;;4.10;2.53;;;;;;;17.80;47.70;100324.27;1688692;83;21107;-70
2023/04/19 08:25:45;;;;;;;4.33;2.47;;;;;;;17.10;47.31;100336.34;1692532;82;21434;-70
2023/04/19 08:28:11;;;;;;;2.98;2.15;;;;;;;16.96;48.91;100331.11;1672525;84;21268;-68
2023/04/19 08:30:40;;;;;;;5.72;2.30;;;;;;;17.78;47.95;100325.28;1673506;84;21040;-70
2023/04/19 08:33:07;;;;;;;6.10;2.12;;;;;;;16.83;45.99;100332.35;1645424;85;21048;-72
2023/04/19 08:35:35;;;;;;;6.05;2.30;;;;;;;15.93;46.03;100336.11;1651976;85;21002;-71
2023/04/19 08:38:05;;;;;;;6.17;2.30;;;;;;;14.96;46.38;100336.41;1674236;84;21523;-68
2023/04/19 08:40:32;;;;;;;2.05;1.90;;;;;;;14.17;46.19;100345.91;1674400;84;21055;-68
2023/04/19 08:42:58;;;;;;;;;;;;;;;13.48;44.74;100343.71;1645866;86;21077;-69
2023/04/19 08:45:32;;;;;;;6.62;2.40;;;;;;;12.29;46.28;100352.30;1639664;85;20641;-69
2023/04/19 08:48:03;;;;;;;4.95;2.50;;;;;;;12.29;46.28;100352.30;1675789;84;21128;-69
2023/04/19 08:50:33;;;;;;;4.50;2.45;;;;;;;12.13;46.30;100338.17;1671901;84;21049;-78
2023/04/19 08:53:01;;;;;;;3.25;2.20;;;;;;;11.83;46.58;100337.23;1652222;84;21061;-75
2023/04/19 08:55:29;;;;;;;6.03;2.50;;;;;;;11.39;45.62;100347.77;1669512;84;21061;-74
2023/04/19 08:58:03;;;;;;;4.87;2.47;;;;;;;11.13;45.69;100349.29;1662252;84;21109;-76
2023/04/19 09:00:31;;;;;;;4.95;2.12;;;;;;;10.40;46.10;100356.39;1684213;84;21564;-75
2023/04/19 09:03:07;;;;;;;7.33;2.72;;;;;;;9.88;46.47;100345.14;1685838;83;22462;-72
2023/04/19 09:05:36;;;;;;;5.65;2.90;;;;;;;9.60;47.08;100348.68;1692862;83;21054;-75
2023/04/19 09:08:23;;;;;;;5.65;2.45;;;;;;;9.41;47.24;100351.52;1681147;83;21497;-77
2023/04/19 09:10:59;;;;;;;6.35;3.10;;;;;;;9.17;47.07;100350.08;1670972;84;21044;-74
2023/04/19 09:13:27;;;;;;;6.28;2.80;;;;;;;8.93;47.64;100349.11;1668882;84;21459;-74
2023/04/19 09:16:00;;;;;;;6.90;2.37;;;;;;;8.86;47.48;100344.12;1675469;84;21057;-73
2023/04/19 09:18:25;;;;;;;5.97;2.75;;;;;;;8.83;47.59;100349.42;1647006;85;21059;-73
2023/04/19 09:20:56;;;;;;;7.40;3.12;;;;;;;8.69;47.45;100350.68;1631120;85;21079;-74
2023/04/19 09:23:25;;;;;;;7.83;3.10;;;;;;;8.72;48.45;100363.61;1645489;85;21006;-73
2023/04/19 09:28:38;;;;;;;4.67;3.00;;;;;;;8.42;47.93;100360.58;1730265;80;22592;-61
2023/04/19 09:31:14;;;;;;;8.33;2.62;;;;;;;8.11;47.23;100365.29;1750148;81;20963;-65
2023/04/19 09:33:40;;;;;;;11.88;3.20;;;;;;;7.92;49.79;100365.38;1749957;80;21091;-61
2023/04/19 09:36:08;;;;;;;8.33;3.10;;;;;;;8.06;49.38;100363.25;1742038;80;21112;-65
2023/04/19 09:38:46;;;;;;;8.73;3.10;;;;;;;7.93;48.81;100347.14;1746098;81;21071;-66
2023/04/19 09:41:13;;;;;;;5.60;2.83;;;;;;;7.77;49.06;100354.48;1711717;82;21025;-61
2023/04/19 09:43:39;;;;;;;7.62;2.90;;;;;;;7.41;50.56;100362.73;1707986;82;21001;-60
2023/04/19 09:46:06;;;;;;;9.35;3.00;;;;;;;6.97;49.00;100385.38;1719832;82;21484;-62
2023/04/19 09:48:32;;;;;;;5.67;2.73;;;;;;;6.78;49.60;100369.37;1714218;82;21550;-65
2023/04/19 09:51:01;;;;;;;8.63;3.35;;;;;;;6.71;52.54;100365.19;1686605;84;21089;-66
2023/04/19 09:53:29;;;;;;;10.90;3.15;;;;;;;6.33;54.09;100359.05;1684744;84;20948;-61
2023/04/19 09:56:06;;;;;;;7.55;3.40;;;;;;;6.10;54.96;100366.40;1716645;82;21537;-60
2023/04/19 09:58:33;;;;;;;8.28;3.85;;;;;;;5.77;56.42;100371.26;1717368;82;22311;-61
2023/04/19 10:01:00;;;;;;;7.12;3.30;;;;;;;5.65;54.82;100363.70;1716687;82;21048;-61
2023/04/19 10:03:30;;;;;;;11.12;3.85;;;;;;;5.59;54.71;100355.15;1715020;82;21045;-63
2023/04/19 10:06:00;;;;;;;8.05;3.42;;;;;;;5.40;53.63;100340.79;1719426;82;21071;-74
2023/04/19 10:08:27;;;;;;;8.08;3.45;;;;;;;5.10;55.16;100358.53;1718813;82;21082;-61
2023/04/19 10:10:55;;;;;;;7.78;3.65;;;;;;;5.00;55.71;100350.47;1720302;81;21583;-62
2023/04/19 10:13:22;;;;;;;6.58;3.25;;;;;;;4.98;56.45;100340.56;1718606;82;21575;-65
2023/04/19 10:15:50;;;;;;;7.47;3.37;;;;;;;4.92;55.57;100339.37;1720836;82;21008;-63
2023/04/19 10:18:37;;;;;;;7.53;3.83;;;;;;;4.77;56.40;100340.89;1690983;82;21623;-69
2023/04/19 10:21:06;;;;;;;7.12;4.17;;;;;;;4.62;57.38;100345.39;1714299;82;21500;-68
2023/04/19 10:23:33;;;;;;;8.73;4.28;;;;;;;4.54;57.80;100344.64;1713774;82;20982;-66
2023/04/19 10:25:59;;;;;;;9.05;4.30;;;;;;;4.40;58.11;100338.78;1715405;82;20913;-73
2023/04/19 10:28:33;;;;;;;9.53;4.12;;;;;;;4.30;59.15;100351.39;1666734;84;21624;-66
2023/04/19 10:31:02;;;;;;;5.92;3.52;;;;;;;4.25;61.45;100349.70;1671592;84;21066;-69
2023/04/19 10:33:41;;;;;;;6.97;3.87;;;;;;;4.30;59.22;100352.68;1672322;84;21041;-66
2023/04/19 10:36:10;;;;;;;5.75;3.65;;;;;;;4.13;60.17;100353.72;1669454;84;21073;-62
2023/04/19 10:38:51;;;;;;;13.30;5.17;;;;;;;4.13;60.33;100373.10;1672093;84;20971;-61
2023/04/19 10:54:02;;;;;;;7.55;3.35;;;;;;;3.99;61.43;100343.97;1821639;77;28112;-66
2023/04/19 10:56:40;;;;;;;10.15;3.83;;;;;;;3.96;65.02;100376.30;1792741;78;21118;-61
2023/04/19 10:59:20;;;;;;;5.78;3.27;;;;;;;3.76;65.00;100364.42;1792142;78;21103;-64
2023/04/19 11:01:46;;;;;;;9.65;3.77;;;;;;;3.71;69.46;100353.28;1790992;79;21484;-62
2023/04/19 11:04:18;;;;;;;7.53;3.65;;;;;;;3.68;66.28;100358.47;1796098;78;21055;-63
2023/04/19 11:06:54;;;;;;;8.75;3.60;;;;;;;3.59;65.86;100338.75;1795500;78;21463;-62
2023/04/19 11:09:35;;;;;;;8.28;3.62;;;;;;;3.72;67.87;100323.98;1798632;79;20996;-63
2023/04/19 11:12:07;;;;;;;8.48;3.65;;;;;;;3.93;66.16;100327.24;1756537;78;22160;-62
2023/04/19 11:14:35;;;;;;;9.60;3.50;;;;;;;3.98;67.76;100321.60;1794484;79;21011;-63
2023/04/19 11:17:17;;;;;;;7.42;4.05;;;;;;;3.96;68.08;100328.06;1794232;79;20960;-61
2023/04/19 11:19:58;;;;;;;8.43;4.10;;;;;;;3.90;67.13;100329.86;1799030;79;21445;-63
2023/04/19 11:22:37;;;;;;;8.23;3.90;;;;;;;3.92;68.72;100319.05;1795941;78;21536;-63
2023/04/19 11:25:18;;;;;;;8.55;3.33;;;;;;;3.87;68.76;100324.73;1796907;79;21157;-65
2023/04/19 11:27:51;;;;;;;10.30;4.28;;;;;;;3.98;67.68;100326.33;1793283;78;21643;-61
2023/04/19 11:33:27;;;;;;;8.70;4.12;;;;;;;4.00;71.17;100328.87;1702564;82;21096;-61
2023/04/19 11:35:56;;;;;;;10.32;3.90;;;;;;;4.15;68.68;100317.09;1689007;84;21084;-66
2023/04/19 11:38:22;;;;;;;7.30;4.20;;;;;;;4.05;68.61;100324.52;1685452;84;21027;-63
2023/04/19 11:41:00;;;;;;;10.00;4.47;;;;;;;3.94;68.06;100322.48;1686892;84;21064;-60
2023/04/19 11:43:35;;;;;;;12.30;4.60;;;;;;;3.99;68.75;100327.17;1675339;84;22356;-61
2023/04/19 11:46:09;;;;;;;10.70;3.80;;;;;;;4.11;69.48;100327.03;1631922;85;21588;-65
2023/04/19 11:48:36;;;;;;;10.90;4.25;;;;;;;4.11;69.48;100327.03;1658118;84;21005;-61
2023/04/19 11:51:08;;;;;;;8.65;3.98;;;;;;;4.27;69.16;100322.55;1684989;83;21016;-61
2023/04/19 11:53:38;;;;;;;11.80;4.55;;;;;;;4.29;68.31;100325.13;1694232;83;21098;-61
2023/04/19 11:56:09;;;;;;;9.53;3.60;;;;;;;4.27;69.34;100309.62;1693271;83;21704;-60